createdAt,value
2018-04-24T00:01:50.369Z,72.86
2018-04-24T00:04:18.353Z,72.38
2018-04-24T00:06:46.343Z,73.05
2018-04-24T00:09:14.340Z,73.61
2018-04-24T00:11:42.327Z,73.10
2018-04-24T00:14:10.316Z,73.25
2018-04-24T00:16:38.287Z,73.46
2018-04-24T00:19:06.283Z,73.55
2018-04-24T00:21:34.252Z,73.46
2018-04-24T00:24:02.255Z,73.25
2018-04-24T00:26:30.234Z,73.67
2018-04-24T00:28:58.305Z,73.77
2018-04-24T00:31:26.503Z,73.75
2018-04-24T00:33:54.573Z,73.68
2018-04-24T00:36:22.564Z,74.30
2018-04-24T00:38:50.615Z,74.67
2018-04-24T00:41:18.627Z,74.60
2018-04-24T00:43:46.628Z,74.99
2018-04-24T00:46:14.714Z,75.38
2018-04-24T00:48:42.765Z,74.66
2018-04-24T00:51:10.760Z,75.31
2018-04-24T00:53:41.379Z,75.41
2018-04-24T00:56:09.374Z,75.14
2018-04-24T00:58:37.376Z,75.60
2018-04-24T01:01:05.394Z,74.75
2018-04-24T01:03:33.363Z,75.26
2018-04-24T01:06:01.371Z,75.62
2018-04-24T01:08:29.372Z,75.91
2018-04-24T01:10:57.381Z,76.79
2018-04-24T01:13:26.008Z,77.01
2018-04-24T01:15:54.000Z,78.11
2018-04-24T01:18:22.395Z,78.30
2018-04-24T01:20:50.658Z,78.41
2018-04-24T01:23:18.692Z,78.11
2018-04-24T01:25:46.688Z,78.30
2018-04-24T01:28:14.648Z,78.07
2018-04-24T01:30:43.301Z,77.80
2018-04-24T01:33:11.296Z,77.59
2018-04-24T01:35:39.273Z,78.00
2018-04-24T01:38:07.291Z,77.17
2018-04-24T01:40:35.338Z,77.57
2018-04-24T01:43:03.379Z,77.64
2018-04-24T01:45:31.393Z,77.88
2018-04-24T01:47:59.633Z,78.37
2018-04-24T01:50:27.599Z,78.38
2018-04-24T01:52:55.606Z,77.72
2018-04-24T01:55:23.604Z,77.63
2018-04-24T01:57:51.614Z,78.15
2018-04-24T02:00:19.588Z,78.40
2018-04-24T02:02:47.659Z,78.28
2018-04-24T02:05:15.652Z,78.43
2018-04-24T02:07:43.621Z,78.80
2018-04-24T02:10:11.601Z,79.11
2018-04-24T02:12:39.607Z,79.88
2018-04-24T02:15:08.024Z,79.19
2018-04-24T02:17:36.049Z,78.80
2018-04-24T02:20:04.057Z,79.08
2018-04-24T02:22:32.079Z,78.56
2018-04-24T02:25:00.315Z,78.32
2018-04-24T02:27:28.263Z,78.30
2018-04-24T02:29:56.248Z,78.72
2018-04-24T02:32:24.482Z,78.92
2018-04-24T02:34:52.515Z,78.17
2018-04-24T02:37:20.525Z,78.56
2018-04-24T02:39:48.513Z,77.90
2018-04-24T02:42:16.533Z,77.90
2018-04-24T02:44:44.736Z,77.70
2018-04-24T02:47:12.794Z,77.37
2018-04-24T02:49:40.776Z,77.21
2018-04-24T02:52:08.844Z,77.50
2018-04-24T02:54:36.865Z,77.33
2018-04-24T02:57:04.889Z,77.85
2018-04-24T02:59:32.881Z,78.17
2018-04-24T03:02:00.973Z,77.75
2018-04-24T03:04:28.963Z,77.83
2018-04-24T03:06:57.028Z,77.42
2018-04-24T03:09:25.071Z,77.31
2018-04-24T03:11:53.089Z,77.39
2018-04-24T03:14:21.092Z,77.15
2018-04-24T03:16:49.160Z,77.15
2018-04-24T03:19:17.216Z,76.79
2018-04-24T03:21:45.211Z,77.05
2018-04-24T03:24:13.195Z,77.03
2018-04-24T03:26:41.253Z,77.80
2018-04-24T03:29:09.461Z,77.42
2018-04-24T03:31:37.509Z,76.81
2018-04-24T03:34:05.485Z,77.58
2018-04-24T03:36:33.510Z,76.86
2018-04-24T03:39:01.498Z,77.02
2018-04-24T03:41:29.569Z,77.11
2018-04-24T03:43:57.657Z,76.80
2018-04-24T03:46:25.659Z,76.84
2018-04-24T03:48:53.633Z,77.47
2018-04-24T03:51:21.645Z,77.85
2018-04-24T03:53:49.656Z,77.49
2018-04-24T03:56:17.692Z,76.92
2018-04-24T03:58:45.607Z,77.82
2018-04-24T04:01:13.556Z,77.02
2018-04-24T04:03:41.456Z,77.34
2018-04-24T04:06:09.372Z,77.17
2018-04-24T04:08:37.328Z,76.99
2018-04-24T04:11:05.236Z,77.45
2018-04-24T04:13:33.289Z,77.57
2018-04-24T04:16:01.286Z,77.93
2018-04-24T04:18:40.937Z,77.79
2018-04-24T04:21:21.562Z,78.08
2018-04-24T04:24:01.738Z,77.94
2018-04-24T04:26:29.775Z,78.04
2018-04-24T04:28:57.755Z,77.80
2018-04-24T04:31:25.671Z,77.60
2018-04-24T04:33:53.576Z,78.59
2018-04-24T04:36:21.670Z,78.36
2018-04-24T04:38:49.619Z,78.72
2018-04-24T04:41:17.632Z,78.55
2018-04-24T04:43:45.670Z,78.95
2018-04-24T04:46:13.974Z,78.21
2018-04-24T04:48:42.130Z,78.22
2018-04-24T04:51:10.085Z,78.36
2018-04-24T04:53:38.001Z,78.36
2018-04-24T04:56:06.022Z,78.41
2018-04-24T04:58:33.897Z,78.59
2018-04-24T05:01:01.823Z,78.67
2018-04-24T05:03:29.785Z,78.52
2018-04-24T05:05:58.072Z,78.78
2018-04-24T05:08:26.011Z,78.95
2018-04-24T05:10:53.933Z,79.95
2018-04-24T05:13:21.866Z,78.54
2018-04-24T05:15:49.792Z,78.50
2018-04-24T05:18:17.720Z,78.06
2018-04-24T05:20:45.652Z,78.63
2018-04-24T05:23:13.596Z,78.11
2018-04-24T05:25:41.513Z,77.76
2018-04-24T05:28:09.451Z,77.66
2018-04-24T05:30:37.404Z,77.77
2018-04-24T05:33:05.328Z,77.65
2018-04-24T05:35:33.250Z,77.98
2018-04-24T05:38:01.185Z,78.08
2018-04-24T05:40:29.091Z,77.50
2018-04-24T05:42:57.018Z,76.39
2018-04-24T05:45:25.174Z,76.29
2018-04-24T05:47:53.126Z,75.73
2018-04-24T05:50:21.064Z,75.67
2018-04-24T05:52:49.249Z,75.62
2018-04-24T05:55:17.142Z,75.27
2018-04-24T05:57:45.075Z,74.97
2018-04-24T06:00:12.982Z,74.70
2018-04-24T06:02:40.919Z,73.77
2018-04-24T06:05:08.858Z,74.44
2018-04-24T06:07:36.768Z,74.31
2018-04-24T06:10:04.713Z,72.97
2018-04-24T06:12:32.630Z,73.75
2018-04-24T06:15:00.683Z,73.34
2018-04-24T06:17:28.805Z,72.65
2018-04-24T06:19:56.740Z,72.48
2018-04-24T06:22:24.791Z,72.02
2018-04-24T06:24:52.642Z,71.91
2018-04-24T06:27:20.555Z,71.71
2018-04-24T06:29:48.507Z,71.29
2018-04-24T06:32:16.420Z,70.84
2018-04-24T06:34:44.512Z,70.53
2018-04-24T06:37:12.479Z,69.64
2018-04-24T06:39:40.393Z,70.19
2018-04-24T06:42:08.408Z,70.81
2018-04-24T06:44:36.323Z,70.03
2018-04-24T06:47:04.243Z,69.88
2018-04-24T06:49:32.185Z,69.57
2018-04-24T06:52:00.104Z,69.16
2018-04-24T06:54:28.023Z,69.36
2018-04-24T06:56:55.929Z,69.57
2018-04-24T06:59:23.911Z,69.53
2018-04-24T07:01:51.829Z,70.10
2018-04-24T07:04:19.745Z,70.10
2018-04-24T07:06:47.676Z,69.72
2018-04-24T07:09:15.584Z,69.90
2018-04-24T07:11:43.513Z,69.81
2018-04-24T07:14:11.426Z,69.81
2018-04-24T07:16:39.348Z,69.90
2018-04-24T07:19:07.264Z,69.82
2018-04-24T07:21:35.191Z,70.00
2018-04-24T07:24:03.098Z,70.05
2018-04-24T07:26:31.045Z,70.18
2018-04-24T07:28:58.995Z,70.61
2018-04-24T07:31:26.978Z,70.48
2018-04-24T07:33:54.881Z,70.63
2018-04-24T07:36:22.805Z,71.44
2018-04-24T07:38:50.838Z,70.93
2018-04-24T07:41:18.763Z,71.05
2018-04-24T07:43:46.721Z,71.44
2018-04-24T07:46:14.667Z,71.05
2018-04-24T07:48:42.576Z,72.16
2018-04-24T07:51:10.509Z,73.20
2018-04-24T07:53:38.412Z,69.78
2018-04-24T07:56:06.378Z,71.10
2018-04-24T07:58:34.267Z,71.01
2018-04-24T08:01:02.215Z,71.32
2018-04-24T08:03:30.154Z,71.96
2018-04-24T08:05:58.083Z,71.33
2018-04-24T08:08:26.027Z,71.79
2018-04-24T08:10:53.928Z,72.51
2018-04-24T08:13:21.857Z,72.19
2018-04-24T08:15:49.933Z,72.06
2018-04-24T08:18:17.859Z,72.30
2018-04-24T08:20:45.794Z,71.48
2018-04-24T08:23:13.703Z,71.75
2018-04-24T08:25:41.625Z,71.64
2018-04-24T08:28:09.581Z,71.39
2018-04-24T08:30:37.510Z,72.13
2018-04-24T08:33:06.031Z,72.41
2018-04-24T08:35:33.944Z,71.55
2018-04-24T08:38:01.905Z,71.80
2018-04-24T08:40:29.819Z,71.63
2018-04-24T08:42:57.741Z,71.55
2018-04-24T08:45:25.679Z,71.58
2018-04-24T08:47:53.608Z,70.79
2018-04-24T08:50:21.549Z,71.27
2018-04-24T08:52:49.503Z,70.32
2018-04-24T08:55:17.419Z,69.44
2018-04-24T08:57:45.337Z,68.70
2018-04-24T09:00:13.256Z,69.02
2018-04-24T09:02:41.168Z,68.91
2018-04-24T09:05:09.079Z,68.97
2018-04-24T09:07:37.005Z,69.00
2018-04-24T09:10:04.919Z,68.04
2018-04-24T09:12:32.843Z,67.05
2018-04-24T09:15:00.842Z,66.72
2018-04-24T09:17:28.742Z,65.42
2018-04-24T09:19:56.713Z,65.66
2018-04-24T09:22:24.629Z,64.24
2018-04-24T09:24:52.561Z,63.62
2018-04-24T09:27:20.462Z,63.82
2018-04-24T09:29:54.035Z,62.12
2018-04-24T09:32:21.960Z,59.95
2018-04-24T09:34:49.885Z,60.78
2018-04-24T09:37:17.840Z,62.20
2018-04-24T09:39:45.768Z,64.88
2018-04-24T09:42:13.675Z,65.24
2018-04-24T09:44:41.595Z,66.23
2018-04-24T09:47:09.534Z,67.77
2018-04-24T09:49:37.453Z,69.77
2018-04-24T09:52:05.361Z,70.60
2018-04-24T09:54:33.295Z,70.26
2018-04-24T09:57:01.252Z,70.98
2018-04-24T09:59:29.885Z,70.71
2018-04-24T10:01:57.786Z,71.03
2018-04-24T10:04:25.709Z,71.11
2018-04-24T10:06:53.635Z,71.33
2018-04-24T10:09:21.574Z,71.69
2018-04-24T10:11:49.510Z,72.32
2018-04-24T10:14:17.412Z,72.75
2018-04-24T10:16:45.340Z,72.83
2018-04-24T10:19:13.259Z,72.94
2018-04-24T10:21:41.177Z,72.32
2018-04-24T10:24:09.088Z,71.84
2018-04-24T10:26:37.057Z,71.58
2018-04-24T10:29:04.982Z,71.58
2018-04-24T10:31:32.903Z,72.30
2018-04-24T10:34:00.834Z,72.59
2018-04-24T10:36:28.747Z,72.06
2018-04-24T10:38:56.655Z,72.50
2018-04-24T10:41:24.694Z,72.71
2018-04-24T10:43:52.685Z,73.53
2018-04-24T10:46:20.559Z,73.18
2018-04-24T10:48:48.475Z,73.47
2018-04-24T10:51:16.390Z,73.27
2018-04-24T10:53:44.307Z,72.85
2018-04-24T10:56:12.218Z,73.06
2018-04-24T10:58:40.137Z,73.43
2018-04-24T11:01:08.093Z,73.15
2018-04-24T11:03:36.038Z,73.34
2018-04-24T11:06:03.948Z,74.09
2018-04-24T11:08:31.895Z,74.18
2018-04-24T11:10:59.791Z,73.76
2018-04-24T11:13:27.737Z,74.92
2018-04-24T11:15:55.643Z,74.57
2018-04-24T11:18:23.556Z,74.62
2018-04-24T11:20:51.459Z,74.73
2018-04-24T11:23:19.387Z,74.81
2018-04-24T11:25:47.306Z,75.21
2018-04-24T11:28:15.245Z,75.69
2018-04-24T11:30:43.208Z,76.41
2018-04-24T11:33:11.136Z,77.58
2018-04-24T11:35:39.053Z,78.58
2018-04-24T11:38:06.966Z,78.63
2018-04-24T11:40:34.886Z,79.02
2018-04-24T11:43:02.812Z,79.19
2018-04-24T11:45:30.715Z,78.08
2018-04-24T11:47:58.665Z,78.41
2018-04-24T11:50:26.583Z,78.39
2018-04-24T11:52:54.488Z,78.37
2018-04-24T11:55:22.409Z,78.18
2018-04-24T11:57:50.320Z,77.27
2018-04-24T12:00:18.260Z,77.31
2018-04-24T12:02:46.189Z,77.51
2018-04-24T12:05:14.086Z,76.51
2018-04-24T12:07:41.999Z,75.60
2018-04-24T12:10:09.936Z,74.65
2018-04-24T12:12:37.815Z,73.79
2018-04-24T12:15:05.731Z,74.78
2018-04-24T12:17:33.643Z,74.89
2018-04-24T12:20:01.561Z,74.29
2018-04-24T12:22:29.468Z,73.29
2018-04-24T12:24:57.396Z,73.03
2018-04-24T12:27:25.317Z,73.93
2018-04-24T12:29:53.233Z,73.41
2018-04-24T12:32:21.162Z,75.01
2018-04-24T12:34:49.098Z,76.16
2018-04-24T12:37:17.027Z,76.12
2018-04-24T12:39:44.955Z,75.76
2018-04-24T12:42:12.882Z,76.02
2018-04-24T12:44:41.216Z,76.17
2018-04-24T12:47:09.055Z,75.94
2018-04-24T12:49:36.990Z,75.73
2018-04-24T12:52:04.934Z,75.50
2018-04-24T12:54:32.835Z,74.54
2018-04-24T12:57:00.783Z,74.83
2018-04-24T12:59:28.709Z,74.65
2018-04-24T13:01:56.625Z,74.74
2018-04-24T13:04:24.571Z,74.70
2018-04-24T13:06:52.488Z,74.85
2018-04-24T13:09:20.584Z,74.28
2018-04-24T13:11:48.537Z,74.69
2018-04-24T13:14:16.473Z,75.07
2018-04-24T13:16:44.403Z,74.36
2018-04-24T13:19:12.328Z,73.38
2018-04-24T13:21:40.242Z,73.77
2018-04-24T13:24:08.179Z,73.48
2018-04-24T13:26:36.084Z,72.71
2018-04-24T13:29:04.517Z,72.68
2018-04-24T13:31:32.433Z,73.28
2018-04-24T13:34:00.377Z,72.38
2018-04-24T13:36:28.301Z,70.23
2018-04-24T13:38:56.224Z,70.61
2018-04-24T13:41:24.145Z,69.74
2018-04-24T13:43:52.048Z,70.20
2018-04-24T13:46:19.970Z,69.20
2018-04-24T13:48:47.881Z,69.90
2018-04-24T13:51:15.819Z,68.79
2018-04-24T13:53:43.732Z,69.16
2018-04-24T13:56:11.633Z,68.37
2018-04-24T13:58:39.550Z,69.67
2018-04-24T14:01:07.457Z,70.16
2018-04-24T14:03:35.432Z,70.16
2018-04-24T14:06:03.331Z,71.01
2018-04-24T14:08:31.435Z,71.87
2018-04-24T14:10:59.350Z,72.19
2018-04-24T14:13:27.264Z,71.62
2018-04-24T14:15:55.166Z,72.00
2018-04-24T14:18:23.110Z,71.43
2018-04-24T14:20:51.024Z,70.40
2018-04-24T14:23:18.939Z,69.58
2018-04-24T14:25:46.861Z,69.31
2018-04-24T14:28:14.904Z,69.60
2018-04-24T14:30:42.814Z,68.26
2018-04-24T14:33:10.746Z,67.86
2018-04-24T14:35:38.735Z,67.48
2018-04-24T14:38:06.652Z,67.35
2018-04-24T14:40:34.588Z,67.06
2018-04-24T14:43:02.493Z,66.64
2018-04-24T14:45:30.419Z,66.61
2018-04-24T14:47:58.346Z,67.01
2018-04-24T14:50:26.260Z,65.06
2018-04-24T14:52:54.162Z,65.27
2018-04-24T14:55:22.076Z,65.58
2018-04-24T14:57:49.985Z,65.95
2018-04-24T15:00:17.920Z,63.53
2018-04-24T15:02:45.826Z,62.95
2018-04-24T15:05:13.758Z,63.53
2018-04-24T15:07:41.653Z,60.96
2018-04-24T15:10:09.563Z,60.41
2018-04-24T15:12:37.468Z,59.82
2018-04-24T15:15:05.395Z,60.29
2018-04-24T15:17:33.354Z,57.74
2018-04-24T15:20:01.268Z,57.78
2018-04-24T15:22:29.179Z,58.16
2018-04-24T15:24:57.098Z,57.22
2018-04-24T15:27:24.996Z,57.77
2018-04-24T15:29:52.967Z,56.03
2018-04-24T15:32:20.816Z,56.35
2018-04-24T15:34:48.720Z,55.36
2018-04-24T15:37:16.631Z,55.52
2018-04-24T15:39:44.535Z,55.73
2018-04-24T15:42:12.456Z,54.53
2018-04-24T15:44:40.355Z,55.13
2018-04-24T15:47:08.295Z,54.06
2018-04-24T15:49:36.231Z,53.95
2018-04-24T15:52:04.141Z,54.85
2018-04-24T15:54:32.043Z,54.76
2018-04-24T15:56:59.961Z,55.61
2018-04-24T15:59:27.863Z,55.92
2018-04-24T16:01:55.767Z,56.29
2018-04-24T16:04:23.812Z,55.94
2018-04-24T16:06:51.719Z,56.41
2018-04-24T16:09:19.615Z,56.13
2018-04-24T16:11:47.535Z,56.15
2018-04-24T16:14:15.460Z,55.84
2018-04-24T16:16:43.368Z,56.31
2018-04-24T16:19:11.263Z,55.84
2018-04-24T16:21:39.210Z,57.22
2018-04-24T16:24:07.168Z,57.03
2018-04-24T16:26:35.144Z,56.81
2018-04-24T16:29:03.052Z,57.06
2018-04-24T16:31:30.979Z,56.83
2018-04-24T16:33:58.967Z,57.32
2018-04-24T16:36:30.647Z,56.84
2018-04-24T16:38:59.298Z,57.11
2018-04-24T16:41:27.276Z,56.74
2018-04-24T16:43:55.211Z,57.44
2018-04-24T16:46:23.119Z,57.21
2018-04-24T16:48:51.051Z,57.53
2018-04-24T16:51:18.952Z,58.20
2018-04-24T16:53:46.859Z,59.80
2018-04-24T16:56:15.044Z,60.61
2018-04-24T16:58:42.879Z,61.31
2018-04-24T17:01:10.771Z,61.52
2018-04-24T17:03:38.699Z,61.87
2018-04-24T17:06:06.673Z,61.99
2018-04-24T17:08:34.674Z,62.38
2018-04-24T17:11:02.738Z,61.91
2018-04-24T17:13:30.735Z,61.23
2018-04-24T17:15:58.663Z,61.53
2018-04-24T17:18:26.579Z,61.62
2018-04-24T17:20:54.595Z,61.76
2018-04-24T17:23:22.588Z,61.41
2018-04-24T17:25:50.522Z,61.79
2018-04-24T17:28:18.423Z,60.84
2018-04-24T17:30:46.426Z,60.18
2018-04-24T17:33:14.589Z,60.08
2018-04-24T17:35:42.485Z,59.99
2018-04-24T17:38:10.422Z,59.90
2018-04-24T17:40:38.637Z,61.35
2018-04-24T17:43:06.531Z,62.57
2018-04-24T17:45:34.454Z,64.74
2018-04-24T17:48:03.904Z,66.36
2018-04-24T17:50:31.792Z,67.68
2018-04-24T17:52:59.692Z,68.34
2018-04-24T17:55:27.627Z,69.16
2018-04-24T17:57:55.520Z,69.01
2018-04-24T18:00:23.427Z,69.19
2018-04-24T18:02:51.340Z,67.84
2018-04-24T18:05:19.248Z,67.53
2018-04-24T18:07:47.187Z,67.26
2018-04-24T18:10:15.097Z,67.55
2018-04-24T18:12:42.996Z,67.69
2018-04-24T18:15:10.899Z,68.75
2018-04-24T18:17:38.791Z,69.11
2018-04-24T18:20:06.735Z,70.58
2018-04-24T18:22:34.664Z,70.76
2018-04-24T18:25:02.565Z,71.51
2018-04-24T18:27:30.467Z,72.22
2018-04-24T18:29:58.395Z,72.35
2018-04-24T18:32:26.313Z,73.48
2018-04-24T18:34:54.211Z,73.14
2018-04-24T18:37:22.131Z,73.07
2018-04-24T18:39:50.039Z,73.06
2018-04-24T18:42:17.965Z,73.25
2018-04-24T18:44:45.860Z,73.62
2018-04-24T18:47:13.770Z,74.12
2018-04-24T18:49:41.690Z,74.78
2018-04-24T18:52:09.607Z,74.64
2018-04-24T18:54:37.544Z,74.65
2018-04-24T18:57:05.520Z,75.02
2018-04-24T18:59:33.460Z,75.31
2018-04-24T19:02:01.384Z,75.45
2018-04-24T19:04:29.320Z,75.66
2018-04-24T19:06:57.283Z,75.98
2018-04-24T19:09:25.201Z,75.11
2018-04-24T19:11:53.153Z,75.19
2018-04-24T19:14:25.103Z,75.49
2018-04-24T19:16:53.013Z,75.79
2018-04-24T19:19:25.777Z,75.99
2018-04-24T19:21:53.725Z,76.53
2018-04-24T19:24:27.361Z,77.02
2018-04-24T19:26:55.273Z,77.19
2018-04-24T19:29:23.199Z,77.08
2018-04-24T19:31:56.810Z,76.66
2018-04-24T19:34:24.743Z,76.76
2018-04-24T19:36:52.661Z,77.21
2018-04-24T19:39:26.340Z,78.24
2018-04-24T19:41:54.274Z,77.95
2018-04-24T19:44:22.180Z,77.85
2018-04-24T19:46:50.103Z,78.34
2018-04-24T19:49:23.813Z,78.58
2018-04-24T19:51:51.703Z,78.56
2018-04-24T19:54:19.610Z,78.63
2018-04-24T19:56:47.546Z,77.98
2018-04-24T19:59:15.468Z,78.79
2018-04-24T20:01:43.457Z,78.43
2018-04-24T20:04:11.522Z,78.96
2018-04-24T20:06:39.498Z,79.11
2018-04-24T20:09:07.416Z,79.47
2018-04-24T20:11:35.336Z,79.53
2018-04-24T20:14:03.298Z,79.72
2018-04-24T20:16:31.217Z,79.98
2018-04-24T20:18:59.131Z,80.20
2018-04-24T20:21:27.103Z,80.04
2018-04-24T20:23:55.075Z,80.02
2018-04-24T20:26:22.920Z,80.18
2018-04-24T20:28:51.218Z,79.14
2018-04-24T20:31:19.138Z,78.44
2018-04-24T20:33:47.565Z,77.50
2018-04-24T20:36:15.516Z,75.88
2018-04-24T20:38:43.561Z,75.57
2018-04-24T20:41:11.408Z,75.31
2018-04-24T20:43:39.400Z,74.98
2018-04-24T20:46:08.246Z,74.46
2018-04-24T20:48:36.192Z,74.23
2018-04-24T20:51:04.167Z,73.34
2018-04-24T20:53:32.132Z,72.48
2018-04-24T20:56:00.028Z,72.90
2018-04-24T20:58:28.001Z,72.30
2018-04-24T21:00:55.955Z,71.89
2018-04-24T21:03:24.863Z,71.81
2018-04-24T21:05:52.801Z,72.01
2018-04-24T21:08:22.528Z,72.13
2018-04-24T21:10:50.457Z,72.68
2018-04-24T21:13:19.506Z,73.26
2018-04-24T21:15:47.433Z,72.32
2018-04-24T21:18:15.385Z,72.09
2018-04-24T21:20:43.326Z,73.06
2018-04-24T21:23:11.295Z,72.45
2018-04-24T21:25:39.195Z,72.81
2018-04-24T21:28:07.128Z,73.61
2018-04-24T21:30:35.061Z,73.55
2018-04-24T21:33:02.974Z,74.35
2018-04-24T21:35:30.890Z,74.20
2018-04-24T21:37:58.800Z,75.59
2018-04-24T21:40:26.725Z,75.06
2018-04-24T21:42:54.650Z,75.44
2018-04-24T21:45:22.555Z,76.37
2018-04-24T21:47:50.497Z,76.82
2018-04-24T21:50:18.420Z,77.31
2018-04-24T21:52:46.361Z,78.58
2018-04-24T21:55:14.286Z,79.41
2018-04-24T21:57:42.202Z,79.56
2018-04-24T22:00:10.155Z,79.21
2018-04-24T22:02:38.108Z,78.67
2018-04-24T22:05:06.015Z,79.90
2018-04-24T22:07:33.928Z,81.78
2018-04-24T22:10:01.857Z,81.29
2018-04-24T22:12:29.768Z,81.69
2018-04-24T22:14:57.683Z,80.09
2018-04-24T22:17:25.608Z,80.68
2018-04-24T22:19:53.553Z,80.97
2018-04-24T22:22:21.467Z,80.41
2018-04-24T22:24:49.406Z,81.52
2018-04-24T22:27:17.340Z,82.65
2018-04-24T22:29:45.255Z,81.69
2018-04-24T22:32:13.215Z,81.57
2018-04-24T22:34:41.155Z,82.34
2018-04-24T22:37:09.072Z,82.26
2018-04-24T22:39:37.051Z,81.73
2018-04-24T22:42:05.010Z,82.47
2018-04-24T22:44:32.923Z,81.89
2018-04-24T22:47:00.864Z,83.35
2018-04-24T22:49:28.799Z,83.94
2018-04-24T22:51:56.727Z,82.82
2018-04-24T22:54:24.703Z,83.46
2018-04-24T22:56:52.619Z,83.27
2018-04-24T22:59:20.542Z,83.70
2018-04-24T23:01:48.472Z,84.23
2018-04-24T23:04:16.392Z,84.81
2018-04-24T23:06:44.313Z,84.68
2018-04-24T23:09:12.265Z,84.61
2018-04-24T23:11:51.940Z,86.13
2018-04-24T23:14:31.622Z,85.06
2018-04-24T23:17:11.278Z,85.25
2018-04-24T23:19:51.104Z,85.64
2018-04-24T23:22:29.839Z,85.58
2018-04-24T23:24:57.761Z,85.29
2018-04-24T23:27:25.693Z,85.98
2018-04-24T23:29:53.668Z,86.65
2018-04-24T23:32:21.612Z,86.58
2018-04-24T23:34:49.561Z,86.48
2018-04-24T23:37:17.510Z,86.12
2018-04-24T23:39:45.439Z,86.60
2018-04-24T23:42:13.352Z,86.75
2018-04-24T23:44:41.287Z,86.78
2018-04-24T23:47:09.211Z,86.98
2018-04-24T23:49:37.223Z,86.95
2018-04-24T23:52:05.143Z,87.53
2018-04-24T23:54:33.053Z,87.07
2018-04-24T23:57:00.979Z,86.61
2018-04-24T23:59:28.974Z,87.12
